Latest Weather Observations for Mount Read

IDT60801

Issued at 8:03 pm EDT Friday 6 March 2015 (issued every 30 minutes, with the page automatically refreshed every 10 minutes)

About weather observations | Map of weather stations | Latest weather observations for TAS | Other Formats
Station Details ID: 097085 Name: MOUNT READ Lat: -41.84 Lon: 145.54 Height: 1119.5 m
Data from the previous 72 hours. | See also: Recent months at Mount Read
Date/Time
EDT
Temp
°C
App
Temp
°C
Dew
Point
Rel
Hum
%
Delta-T
°C
Wind Press
QNH
hPa
Press
MSL
hPa
Rain
since 9 am
mm
Dir
 
Spd
km/h
Gust
km/h
Spd
kts
Gust
kts
06/08:00pm 2.6 -0.7 2.5 99 0.0 WSW 9 15 5 8 1007.3 1006.0 0.0
06/07:30pm 3.0 -1.4 2.9 99 0.0 SW 15 19 8 10 1007.3 1006.0 0.0
06/07:00pm 3.4 -1.3 3.3 99 0.0 SSW 17 20 9 11 1007.0 1005.7 0.0
06/06:30pm 4.7 -0.3 3.8 94 0.4 SW 19 24 10 13 1006.9 1005.6 0.0
06/06:00pm 3.9 -1.7 3.5 97 0.2 SSW 22 30 12 16 1006.5 1005.2 0.0
06/05:30pm 4.9 -0.7 3.7 92 0.5 SW 22 30 12 16 1006.4 1005.1 0.0
06/05:00pm 6.0 0.5 4.2 88 0.8 SSW 22 37 12 20 1006.0 1004.7 0.0
06/04:30pm 6.0 -0.3 5.9 99 0.0 SSW 28 39 15 21 1005.7 1004.4 0.0
06/04:00pm 5.5 -2.2 5.4 99 0.0 SSW 35 44 19 24 1005.3 1004.0 0.0
06/03:30pm 4.8 -3.0 4.7 99 0.0 SSW 35 43 19 23 1005.5 1004.2 0.0
06/03:00pm 5.2 -4.1 5.1 99 0.0 SSW 43 54 23 29 1005.3 1004.0 0.0
06/02:30pm 4.3 -5.1 4.2 99 0.0 SSW 43 52 23 28 1005.2 1003.9 0.0
06/02:00pm 4.3 -5.3 4.2 99 0.0 SSW 44 56 24 30 1004.7 1003.4 0.0
06/01:30pm 3.1 -6.6 3.0 99 0.0 SSW 43 56 23 30 1004.8 1003.5 0.0
06/01:00pm 3.0 -8.0 2.9 99 0.0 SSW 50 67 27 36 1004.3 1003.0 0.0
06/12:43pm 2.7 -7.2 2.6 99 0.0 SSW 44 63 24 34 1004.3 1003.0 0.0
06/12:30pm 2.9 -8.1 2.8 99 0.0 SSW 50 63 27 34 1004.0 1002.6 0.0
06/12:00pm 2.8 -7.9 2.7 99 0.0 SSW 48 63 26 34 1003.7 1002.4 0.0
06/11:33am 2.7 -9.1 2.6 99 0.0 SSW 54 72 29 39 1003.4 1002.0 0.0
06/11:30am 2.6 -9.6 2.5 99 0.0 SSW 56 72 30 39 1003.3 1001.9 0.0
06/11:15am 2.4 -10.1 2.3 99 0.0 SSW 57 76 31 41 1003.1 1001.7 0.0
06/11:00am 2.3 -10.2 2.2 99 0.0 SSW 57 74 31 40 1002.7 1001.4 0.0
06/10:30am 2.5 -10.3 2.4 99 0.0 SSW 59 72 32 39 1002.2 1000.8 0.0
06/10:00am 2.4 -10.1 2.3 99 0.0 SSW 57 76 31 41 1002.2 1000.8 0.0
06/09:30am 2.3 -10.5 2.2 99 0.0 SSW 59 80 32 43 1001.6 1000.2 0.0
06/09:11am 2.4 -10.1 2.3 99 0.0 SSW 57 76 31 41 1001.5 1000.1 0.0
06/09:00am 2.1 -11.2 2.0 99 0.0 SSW 61 80 33 43 1001.2 999.8 104.2
06/08:30am 2.5 -11.1 2.4 99 0.0 SSW 63 91 34 49 1000.8 999.4 104.0
06/08:00am 3.5 -9.9 3.4 99 0.0 SSW 63 83 34 45 1000.5 999.1 104.0
06/07:31am 3.8 -8.8 3.7 99 0.0 SSW 59 80 32 43 1000.1 998.6 102.4
06/07:30am 3.8 -9.2 3.7 99 0.0 SSW 61 80 33 43 999.8 998.4 102.4
06/07:03am 4.1 -10.3 4.0 99 0.0 SW 69 89 37 48 999.6 998.2 101.8
06/07:00am 4.0 -11.4 3.9 99 0.0 SW 74 91 40 49 999.3 997.8 101.6
06/06:30am 4.9 -8.2 4.8 99 0.0 SW 63 89 34 48 999.2 997.7 99.4
06/06:12am 4.9 -9.6 4.8 99 0.0 SW 70 89 38 48 998.8 997.4 98.6
06/06:07am 4.9 -8.6 4.8 99 0.0 SW 65 89 35 48 998.6 997.1 98.4
06/06:00am 5.5 -5.8 5.4 99 0.0 SW 54 78 29 42 999.3 997.8 98.0
06/05:32am 5.6 -6.2 5.5 99 0.0 SW 57 93 31 50 999.0 997.6 95.6
06/05:30am 5.7 -6.5 5.6 99 0.0 SW 59 85 32 46 999.3 997.8 95.6
06/05:29am 5.7 -6.9 5.6 99 0.0 SW 61 85 33 46 999.3 997.8 95.4
06/05:06am 5.7 -8.6 5.6 99 0.0 SW 70 89 38 48 999.0 997.6 94.0
06/05:00am 5.7 -9.7 5.6 99 0.0 SW 76 95 41 51 998.6 997.1 93.8
06/04:30am 6.1 -6.8 6.0 99 0.0 SW 63 87 34 47 998.9 997.5 91.2
06/04:04am 6.1 -5.6 6.0 99 0.0 SW 57 87 31 47 998.9 997.5 88.0
06/04:00am 6.2 -5.3 6.1 99 0.0 WSW 56 74 30 40 999.2 997.7 87.4
06/03:52am 6.3 -6.2 6.2 99 0.0 WSW 61 85 33 46 999.3 997.8 86.4
06/03:51am 6.4 -6.4 6.3 99 0.0 SW 63 85 34 46 999.5 998.0 86.4
06/03:35am 6.4 -8.1 6.3 99 0.0 SW 72 93 39 50 999.0 997.6 83.8
06/03:30am 6.3 -8.3 6.2 99 0.0 SW 72 91 39 49 998.8 997.4 83.2
06/03:26am 6.3 -8.3 6.2 99 0.0 SW 72 91 39 49 998.8 997.4 82.2
06/03:00am 6.6 -4.8 6.5 99 0.0 WSW 56 80 30 43 999.7 998.3 76.2
06/02:54am 6.5 -6.3 6.4 99 0.0 WSW 63 87 34 47 999.7 998.3 74.6
06/02:52am 6.5 -6.7 6.4 99 0.0 WSW 65 87 35 47 999.9 998.5 74.4
06/02:40am 6.5 -5.2 6.4 99 0.0 WSW 57 93 31 50 999.2 997.7 72.0
06/02:38am 6.4 -4.7 6.3 99 0.0 WSW 54 85 29 46 999.5 998.0 71.8
06/02:35am 6.6 -3.7 6.5 99 0.0 WSW 50 69 27 37 1000.3 998.8 71.2
06/02:34am 6.6 -4.1 6.5 99 0.0 WSW 52 85 28 46 1000.4 999.0 71.0
06/02:30am 6.5 -5.9 6.4 99 0.0 WSW 61 95 33 51 1000.3 998.8 69.8
06/02:00am 6.2 -7.4 6.1 99 0.0 WSW 67 87 36 47 999.8 998.4 64.8
06/01:30am 6.0 -7.7 5.9 99 0.0 WSW 67 91 36 49 1000.4 999.0 60.0
06/01:00am 5.8 -6.0 5.7 99 0.0 W 57 80 31 43 1000.8 999.4 55.0
06/12:30am 5.5 -4.3 5.4 99 0.0 W 46 70 25 38 1001.7 1000.3 49.6
06/12:00am 5.1 -4.4 5.0 99 0.0 W 44 70 24 38 1002.1 1000.7 45.0
 
Date/Time
EDT
Temp
°C
App
Temp
°C
Dew
Point
Rel
Hum
%
Delta-T
°C
Wind Press
QNH
hPa
Press
MSL
hPa
Rain
since 9 am
mm
Dir
 
Spd
km/h
Gust
km/h
Spd
kts
Gust
kts
05/11:35pm 4.9 -5.8 4.8 99 0.0 W 50 70 27 38 1002.1 1000.7 41.4
05/11:30pm 4.8 -5.9 4.7 99 0.0 W 50 65 27 35 1002.2 1000.8 40.8
05/11:00pm 4.5 -7.4 4.4 99 0.0 W 56 76 30 41 1002.5 1001.1 36.6
05/10:30pm 4.5 -7.0 4.4 99 0.0 W 54 83 29 45 1002.5 1001.1 32.8
05/10:00pm 4.4 -8.1 4.3 99 0.0 W 59 83 32 45 1002.6 1001.2 29.4
05/09:38pm 4.2 -8.3 4.1 99 0.0 W 59 78 32 42 1003.0 1001.6 27.0
05/09:30pm 4.0 -8.9 3.9 99 0.0 W 61 78 33 42 1002.8 1001.5 26.0
05/09:04pm 3.5 -8.6 3.4 99 0.0 W 56 76 30 41 1003.1 1001.7 23.8
05/09:00pm 3.4 -8.7 3.3 99 0.0 W 56 74 30 40 1003.3 1001.9 23.4
05/08:50pm 3.3 -8.0 3.2 99 0.0 W 52 74 28 40 1003.6 1002.3 22.2
05/08:47pm 3.3 -8.8 3.2 99 0.0 W 56 74 30 40 1004.0 1002.6 21.8
05/08:35pm 3.2 -10.6 3.1 99 0.0 W 65 85 35 46 1003.4 1002.0 21.0
05/08:30pm 3.2 -11.4 3.1 99 0.0 W 69 83 37 45 1002.8 1001.5 20.6
05/08:00pm 3.1 -8.7 3.0 99 0.0 W 54 72 29 39 1003.3 1001.9 18.4
05/07:31pm 2.9 -9.8 2.8 99 0.0 W 59 80 32 43 1004.0 1002.6 16.2
05/07:30pm 3.0 -10.1 2.9 99 0.0 W 61 80 33 43 1004.1 1002.7 16.2
05/07:00pm 2.6 -9.2 2.5 99 0.0 W 54 74 29 40 1004.2 1002.8 14.0
05/06:30pm 2.3 -10.2 2.2 99 0.0 W 57 78 31 42 1004.5 1003.2 12.8
05/06:00pm 2.6 -9.6 2.5 99 0.0 W 56 76 30 41 1005.2 1003.9 11.0
05/05:39pm 2.3 -8.5 2.2 99 0.0 W 48 70 26 38 1005.4 1004.1 10.0
05/05:30pm 2.8 -9.0 2.7 99 0.0 W 54 72 29 39 1005.5 1004.2 9.4
05/05:25pm 2.6 -8.5 2.5 99 0.0 W 50 72 27 39 1005.3 1004.0 9.4
05/05:10pm 2.3 -7.1 2.2 99 0.0 W 41 63 22 34 1005.7 1004.4 8.6
05/05:00pm 2.4 -7.6 2.3 99 0.0 W 44 61 24 33 1006.1 1004.8 8.2
05/04:30pm 2.8 -8.3 2.7 99 0.0 W 50 67 27 36 1006.6 1005.4 7.4
05/04:00pm 2.5 -6.9 2.4 99 0.0 W 41 63 22 34 1007.1 1005.8 7.4
05/03:57pm 2.7 -7.0 2.6 99 0.0 W 43 63 23 34 1007.1 1005.8 7.4
05/03:30pm 2.5 -8.6 2.4 99 0.0 W 50 67 27 36 1007.3 1006.0 7.4
05/03:04pm 1.9 -8.0 1.8 99 0.0 WSW 43 63 23 34 1007.6 1006.4 7.4
05/03:00pm 2.1 -7.4 2.0 99 0.0 WSW 41 54 22 29 1007.9 1006.6 7.4
05/02:30pm 2.4 -7.6 2.3 99 0.0 WSW 44 69 24 37 1007.9 1006.6 7.4
05/02:01pm 2.1 -8.7 2.0 99 0.0 WSW 48 67 26 36 1008.5 1007.3 7.4
05/02:00pm 2.2 -9.0 2.1 99 0.0 WSW 50 67 27 36 1008.5 1007.3 7.4
05/01:30pm 1.9 -8.5 1.8 99 0.0 WSW 46 67 25 36 1008.6 1007.4 7.2
05/01:01pm 0.8 -10.6 0.7 99 0.0 W 50 74 27 40 1008.5 1007.3 7.2
05/01:00pm 0.9 -9.7 0.8 99 0.0 W 46 65 25 35 1008.6 1007.4 7.2
05/12:55pm 1.6 -8.3 1.5 99 0.0 WSW 43 63 23 34 1009.0 1007.8 7.2
05/12:53pm 1.7 -8.2 1.6 99 0.0 WSW 43 59 23 32 1008.9 1007.6 7.2
05/12:30pm 1.4 -10.3 1.3 99 0.0 SW 52 65 28 35 1008.8 1007.5 7.0
05/12:08pm 0.3 -9.8 0.2 99 0.0 SW 43 63 23 34 1009.1 1007.9 6.6
05/12:00pm 1.1 -8.5 1.0 99 0.0 WSW 41 57 22 31 1009.1 1007.9 6.4
05/11:30am 0.1 -10.2 0.0 99 0.0 SW 44 61 24 33 1008.6 1007.4 5.0
05/11:00am 0.8 -11.0 0.7 99 0.0 SW 52 72 28 39 1008.5 1007.3 3.6
05/10:49am 0.1 -11.4 0.0 99 0.0 SW 50 69 27 37 1008.5 1007.3 2.6
05/10:30am -0.1 -12.8 -0.2 99 0.0 SW 56 69 30 37 1008.0 1006.7 1.8
05/10:04am 0.0 -12.6 -0.1 99 0.0 SW 56 74 30 40 1007.5 1006.3 1.6
05/10:00am 0.0 -12.3 -0.1 99 0.0 SW 54 70 29 38 1007.5 1006.3 1.4
05/09:33am -0.1 -12.9 -0.2 99 0.0 SSW 57 80 31 43 1006.6 1005.4 0.4
05/09:30am -0.2 -12.5 -0.3 99 0.0 SSW 54 69 29 37 1006.7 1005.5 0.4
05/09:03am -0.1 -12.8 -0.2 99 0.0 SSW 56 78 30 42 1006.2 1004.9 0.2
05/09:00am -0.1 -12.8 -0.2 99 0.0 SSW 56 69 30 37 1006.2 1004.9 46.0
05/08:44am -0.3 -12.6 -0.4 99 0.0 SSW 54 76 29 41 1005.9 1004.6 45.4
05/08:30am -0.1 -12.4 -0.2 99 0.0 SSW 54 70 29 38 1005.5 1004.2 45.2
05/08:28am 0.0 -11.9 -0.1 99 0.0 SSW 52 70 28 38 1005.4 1004.1 45.0
05/08:00am -0.3 -13.0 -0.4 99 0.0 SW 56 69 30 37 1004.7 1003.4 44.6
05/07:30am 0.1 -12.7 0.0 99 0.0 SW 57 80 31 43 1004.1 1002.7 44.4
05/07:00am 0.0 -11.9 -0.1 99 0.0 SSW 52 74 28 40 1003.1 1001.7 44.4
05/06:52am 0.1 -12.1 0.0 99 0.0 SSW 54 74 29 40 1003.1 1001.7 44.4
05/06:30am 0.0 -13.2 -0.1 99 0.0 SW 59 76 32 41 1002.2 1000.8 44.4
05/06:00am -0.1 -14.5 -0.2 99 0.0 SSW 65 96 35 52 1001.1 999.6 44.4
05/05:30am 0.5 -13.4 0.4 99 0.0 SSW 63 85 34 46 1000.7 999.3 44.2
05/05:00am 0.3 -13.6 0.2 99 0.0 SSW 63 85 34 46 1000.2 998.7 43.6
05/04:38am 0.6 -12.5 0.5 99 0.0 SSW 59 80 32 43 999.7 998.3 43.4
05/04:30am 0.3 -14.4 0.2 99 0.0 SSW 67 80 36 43 999.2 997.7 43.4
05/04:00am 0.8 -12.3 0.7 99 0.0 SW 59 89 32 48 998.8 997.4 43.0
05/03:30am 0.8 -11.0 0.7 99 0.0 SW 52 78 28 42 998.9 997.5 41.6
05/03:15am 0.5 -11.7 0.4 99 0.0 SW 54 89 29 48 998.6 997.1 41.0
05/03:07am 0.7 -9.9 0.6 99 0.0 SW 46 69 25 37 998.6 997.1 41.0
05/03:00am 1.0 -10.0 0.9 99 0.0 SW 48 63 26 34 998.5 997.0 41.0
05/02:38am 0.3 -12.9 0.2 99 0.0 SW 59 82 32 44 998.3 996.8 40.4
05/02:30am 0.5 -13.0 0.4 99 0.0 SW 61 78 33 42 998.4 996.9 40.2
05/02:00am 1.4 -11.0 1.3 99 0.0 SW 56 76 30 41 997.8 996.3 37.8
05/01:30am 1.5 -10.9 1.4 99 0.0 WSW 56 76 30 41 998.6 997.1 36.0
05/01:28am 1.6 -10.4 1.5 99 0.0 WSW 54 76 29 41 998.6 997.1 35.8
05/01:26am 1.8 -9.8 1.7 99 0.0 WSW 52 76 28 41 998.6 997.1 35.6
05/01:17am 2.6 -8.1 2.5 99 0.0 W 48 80 26 43 998.5 997.0 34.4
05/01:14am 2.8 -9.0 2.7 99 0.0 WSW 54 82 29 44 998.6 997.1 34.0
05/01:00am 2.1 -11.2 2.0 99 0.0 SW 61 89 33 48 997.7 996.2 33.6
05/12:53am 2.0 -9.6 1.9 99 0.0 WSW 52 89 28 48 997.7 996.2 33.2
05/12:31am 3.0 -7.6 2.9 99 0.0 WSW 48 69 26 37 998.5 997.0 31.2
05/12:30am 3.0 -8.0 2.9 99 0.0 WSW 50 69 27 37 998.5 997.0 31.2
05/12:00am 3.8 -6.7 3.7 99 0.0 W 48 74 26 40 998.6 997.1 30.0
 
Date/Time
EDT
Temp
°C
App
Temp
°C
Dew
Point
Rel
Hum
%
Delta-T
°C
Wind Press
QNH
hPa
Press
MSL
hPa
Rain
since 9 am
mm
Dir
 
Spd
km/h
Gust
km/h
Spd
kts
Gust
kts
04/11:30pm 4.1 -5.6 4.0 99 0.0 W 44 65 24 35 998.6 997.1 28.8
04/11:14pm 4.1 -6.7 4.0 99 0.0 W 50 76 27 41 999.2 997.7 28.8
04/11:13pm 4.1 -6.7 4.0 99 0.0 W 50 76 27 41 999.3 997.8 28.8
04/11:00pm 4.4 -8.4 4.3 99 0.0 W 61 89 33 48 998.9 997.5 28.6
04/10:52pm 5.2 -4.6 5.1 99 0.0 WNW 46 76 25 41 999.3 997.8 28.0
04/10:30pm 5.1 -3.8 5.0 99 0.0 NW 41 74 22 40 999.9 998.5 27.8
04/10:11pm 5.1 -5.5 5.0 99 0.0 WNW 50 80 27 43 1000.2 998.7 27.6
04/10:10pm 5.3 -4.9 5.2 99 0.0 WNW 48 80 26 43 1000.4 999.0 27.6
04/10:07pm 5.1 -5.1 5.0 99 0.0 WNW 48 80 26 43 999.9 998.5 27.6
04/10:00pm 5.5 -2.9 5.4 99 0.0 WNW 39 63 21 34 1000.6 999.2 27.6
04/09:30pm 5.9 -2.5 5.8 99 0.0 WNW 39 69 21 37 1000.8 999.4 27.0
04/09:00pm 5.3 -4.9 5.2 99 0.0 WNW 48 70 26 38 1001.1 999.6 26.8
04/08:30pm 6.0 -5.2 5.9 99 0.0 WNW 54 80 29 43 1001.4 1000.0 26.8
04/08:17pm 5.7 -2.3 5.6 99 0.0 WNW 37 78 20 42 1000.9 999.5 26.8
04/08:16pm 6.0 -1.2 5.9 99 0.0 WNW 33 76 18 41 1001.4 1000.0 26.6
04/08:00pm 6.3 -1.2 6.2 99 0.0 WNW 35 56 19 30 1001.5 1000.1 24.0
04/07:30pm 6.0 -4.1 5.9 99 0.0 WNW 48 80 26 43 1001.6 1000.2 21.0
04/07:22pm 6.1 -2.2 6.0 99 0.0 WNW 39 80 21 43 1001.5 1000.1 20.8
04/07:01pm 5.8 -0.1 5.7 99 0.0 NW 26 56 14 30 1002.4 1001.0 19.8
04/07:00pm 5.9 0.0 5.8 99 0.0 NW 26 56 14 30 1002.7 1001.4 19.8
04/06:30pm 6.1 -1.1 6.0 99 0.0 WNW 33 56 18 30 1003.2 1001.8 19.6
04/06:00pm 6.3 -3.7 6.2 99 0.0 WNW 48 74 26 40 1003.1 1001.7 19.6
04/05:50pm 7.0 -0.7 6.9 99 0.0 WNW 37 74 20 40 1002.8 1001.5 19.6
04/05:31pm 6.7 0.6 6.6 99 0.0 NW 28 54 15 29 1003.4 1002.0 18.2
04/05:30pm 6.7 1.0 6.6 99 0.0 NW 26 54 14 29 1003.5 1002.2 18.2
04/05:07pm 6.2 -0.4 6.1 99 0.0 NW 30 54 16 29 1004.1 1002.7 18.0
04/05:00pm 6.5 0.4 6.4 99 0.0 NW 28 50 15 27 1004.3 1003.0 17.8
04/04:58pm 6.5 -0.4 6.4 99 0.0 NW 32 54 17 29 1004.4 1003.1 17.8
04/04:42pm 6.6 -2.0 6.5 99 0.0 WNW 41 63 22 34 1004.4 1003.1 17.6
04/04:30pm 7.0 -1.1 6.9 99 0.0 WNW 39 52 21 28 1004.1 1002.7 16.0
04/04:00pm 7.2 -0.5 7.1 99 0.0 WNW 37 61 20 33 1005.0 1003.6 15.0
04/03:30pm 7.1 -1.0 7.0 99 0.0 NW 39 59 21 32 1005.4 1004.1 13.8
04/03:07pm 6.6 -2.0 6.5 99 0.0 WNW 41 59 22 32 1005.4 1004.1 13.4
04/03:00pm 7.1 -1.0 7.0 99 0.0 WNW 39 54 21 29 1005.7 1004.4 12.6
04/02:30pm 7.2 -3.0 7.1 99 0.0 WNW 50 80 27 43 1005.7 1004.4 12.0
04/02:27pm 7.1 -2.7 7.0 99 0.0 WNW 48 80 26 43 1005.5 1004.2 12.0
04/02:26pm 7.2 -2.6 7.1 99 0.0 WNW 48 80 26 43 1005.3 1004.0 12.0
04/02:00pm 7.6 -0.4 7.5 99 0.1 WNW 39 61 21 33 1005.9 1004.6 10.2
04/01:30pm 7.8 1.6 7.7 99 0.1 WNW 30 50 16 27 1006.5 1005.2 9.6
04/01:26pm 7.8 1.6 7.7 99 0.1 NW 30 50 16 27 1006.6 1005.4 9.6
04/01:00pm 7.2 -1.3 7.1 99 0.0 WNW 41 57 22 31 1007.0 1005.7 8.8
04/12:30pm 7.8 1.0 7.7 99 0.1 WNW 33 56 18 30 1006.9 1005.6 7.6
04/12:00pm 7.6 -0.8 7.5 99 0.1 WNW 41 61 22 33 1007.5 1006.3 5.6
04/11:30am 7.5 -0.9 7.4 99 0.0 WNW 41 61 22 33 1007.9 1006.6 3.8
04/11:00am 7.1 -1.8 7.0 99 0.0 WNW 43 70 23 38 1007.9 1006.6 1.6
04/10:50am 7.0 -2.8 6.9 99 0.0 WNW 48 76 26 41 1007.5 1006.3 1.6
04/10:30am 7.1 0.1 7.0 99 0.0 NW 33 65 18 35 1007.9 1006.6 1.6
04/10:00am 6.9 -3.0 6.8 99 0.0 WNW 48 78 26 42 1007.4 1006.2 0.8
04/09:30am 6.7 -0.7 6.6 99 0.0 NW 35 69 19 37 1008.3 1007.1 0.8
04/09:00am 6.6 -1.2 6.5 99 0.0 NW 37 70 20 38 1008.1 1006.8 8.6
04/08:49am 6.6 -0.3 6.5 99 0.0 NW 32 57 17 31 1007.9 1006.6 7.8
04/08:46am 6.5 0.0 6.4 99 0.0 NW 30 52 16 28 1008.1 1006.8 7.6
04/08:30am 6.3 -2.4 6.2 99 0.0 NW 41 69 22 37 1008.1 1006.8 6.8
04/08:00am 6.0 -3.3 5.9 99 0.0 WNW 44 63 24 34 1007.7 1006.5 5.8
04/07:33am 5.8 -1.8 5.7 99 0.0 WNW 35 56 19 30 1007.9 1006.6 5.6
04/07:30am 5.7 -2.3 5.6 99 0.0 NW 37 56 20 30 1007.7 1006.5 5.6
04/07:00am 5.9 -3.4 5.8 99 0.0 WNW 44 70 24 38 1007.9 1006.6 5.4
04/06:30am 5.8 -3.0 5.7 99 0.0 WNW 41 67 22 36 1008.0 1006.7 4.8
04/06:00am 5.5 -3.9 5.4 99 0.0 NW 44 67 24 36 1007.9 1006.6 4.0
04/05:30am 5.4 -1.4 5.3 99 0.0 NW 30 63 16 34 1008.0 1006.7 3.8
04/05:00am 5.2 -2.2 5.1 99 0.0 NW 33 59 18 32 1008.2 1007.0 2.8
04/04:30am 5.1 -2.3 5.0 99 0.0 NW 33 54 18 29 1008.4 1007.2 2.6
04/04:00am 4.9 -2.9 4.8 99 0.0 NW 35 63 19 34 1008.6 1007.4 2.6
04/03:45am 4.8 -3.4 4.7 99 0.0 WNW 37 76 20 41 1008.3 1007.1 2.4
04/03:30am 4.6 -2.7 4.5 99 0.0 NW 32 54 17 29 1008.8 1007.5 2.0
04/03:28am 4.5 -2.8 4.4 99 0.0 NW 32 54 17 29 1008.9 1007.6 2.0
04/03:00am 4.2 -0.9 4.1 99 0.0 NW 20 35 11 19 1009.2 1008.0 0.8
04/02:36am 4.2 -2.4 4.1 99 0.0 NW 28 48 15 26 1009.6 1008.4 0.4
04/02:30am 4.1 -2.2 4.0 99 0.0 NW 26 37 14 20 1009.8 1008.6 0.4
04/02:00am 4.2 -3.2 4.1 99 0.0 NW 32 56 17 30 1010.2 1009.0 0.4
04/01:31am 4.4 -4.3 4.3 99 0.0 NW 39 59 21 32 1010.4 1009.2 0.4
04/01:30am 4.5 -4.5 4.4 99 0.0 NW 41 59 22 32 1010.4 1009.2 0.4
04/01:06am 4.4 -2.9 4.3 99 0.0 NW 32 57 17 31 1010.5 1009.4 0.4
04/01:00am 4.3 -1.5 4.2 99 0.0 NW 24 44 13 24 1010.8 1009.6 0.4
04/12:30am 4.1 -2.2 4.0 99 0.0 NW 26 50 14 27 1011.1 1009.9 0.2
04/12:00am 4.1 -1.4 4.0 99 0.0 NW 22 39 12 21 1011.6 1010.5 0.2
 
Date/Time
EDT
Temp
°C
App
Temp
°C
Dew
Point
Rel
Hum
%
Delta-T
°C
Wind Press
QNH
hPa
Press
MSL
hPa
Rain
since 9 am
mm
Dir
 
Spd
km/h
Gust
km/h
Spd
kts
Gust
kts
03/11:30pm 4.5 -0.3 4.4 99 0.0 NW 19 32 10 17 1012.0 1010.8 0.2
03/11:05pm 4.6 -1.9 4.5 99 0.0 NW 28 48 15 26 1012.1 1011.0 0.2
03/11:00pm 4.7 -0.7 4.6 99 0.0 NW 22 46 12 25 1012.2 1011.1 0.2
03/10:46pm 4.7 -1.8 4.6 99 0.0 NW 28 56 15 30 1012.2 1011.1 0.2
03/10:30pm 4.6 -1.6 4.5 99 0.0 NW 26 56 14 30 1012.3 1011.2 0.2
03/10:00pm 4.3 -1.2 4.2 99 0.0 NW 22 37 12 20 1012.7 1011.5 0.2
03/09:30pm 4.2 -0.7 4.1 99 0.0 NW 19 30 10 16 1012.8 1011.6 0.0
03/09:00pm 4.1 -0.1 4.0 99 0.0 NNW 15 28 8 15 1012.8 1011.6 0.0
03/08:30pm 4.2 -0.3 4.1 99 0.0 NW 17 33 9 18 1012.9 1011.8 0.0

Other Formats:

Comma delimited format used in spreadsheet applications
http://www.bom.gov.au/fwo/IDT60801/IDT60801.95952.axf

JavaScript Object Notation format (JSON) in row-major order
http://www.bom.gov.au/fwo/IDT60801/IDT60801.95952.json